Time;durP1;ratioP1;P1;durP2;ratioP2;P2;SDS_P1;SDS_P2;PMS_P1;PMS_P2;Temp;Humidity;BMP_temperature;BMP_pressure;BME280_temperature;BME280_humidity;BME280_pressure;Samples;Min_cycle;Max_cycle;Signal;HPM_P1;HPM_P2
2022/07/30 00:00:50;;;;;;;0.67;0.67;;;;;;;;;;5122027;27;20207;-62
2022/07/30 00:03:37;;;;;;;0.90;0.90;;;;;;;;;;5118811;27;20337;-61
2022/07/30 00:06:24;;;;;;;0.97;0.97;;;;;;;;;;5125457;27;20599;-62
2022/07/30 00:09:11;;;;;;;1.20;1.10;;;;;;;;;;5120542;27;20217;-62
2022/07/30 00:11:59;;;;;;;0.80;0.80;;;;;;;;;;5120250;27;20208;-62
2022/07/30 00:14:46;;;;;;;0.90;0.90;;;;;;;;;;5120821;27;20209;-62
2022/07/30 00:17:33;;;;;;;0.97;0.97;;;;;;;;;;5111348;27;20234;-62
2022/07/30 00:20:20;;;;;;;1.07;1.07;;;;;;;;;;5119155;27;20678;-62
2022/07/30 00:23:07;;;;;;;0.70;0.70;;;;;;;;;;5123125;27;20289;-62
2022/07/30 00:25:54;;;;;;;0.73;0.73;;;;;;;;;;5115521;27;20208;-61
2022/07/30 00:28:42;;;;;;;0.80;0.80;;;;;;;;;;5118431;27;20204;-61
2022/07/30 00:31:29;;;;;;;1.03;1.03;;;;;;;;;;5109216;27;20257;-61
2022/07/30 00:34:16;;;;;;;0.70;0.70;;;;;;;;;;5115342;27;20214;-61
2022/07/30 00:37:03;;;;;;;0.87;0.87;;;;;;;;;;5118954;27;20224;-62
2022/07/30 00:39:50;;;;;;;0.73;0.73;;;;;;;;;;5120207;27;20233;-62
2022/07/30 00:42:40;;;;;;;0.80;0.80;;;;;;;;;;5114883;27;20674;-62
2022/07/30 00:45:28;;;;;;;1.03;1.03;;;;;;;;;;5120634;27;20291;-62
2022/07/30 00:48:16;;;;;;;0.73;0.73;;;;;;;;;;5116281;27;20670;-62
2022/07/30 00:51:03;;;;;;;1.07;1.07;;;;;;;;;;5119914;27;20212;-62
2022/07/30 00:53:50;;;;;;;0.93;0.93;;;;;;;;;;5124012;27;20202;-62
2022/07/30 00:56:37;;;;;;;0.80;0.80;;;;;;;;;;5122477;27;20227;-62
2022/07/30 00:59:26;;;;;;;0.73;0.73;;;;;;;;;;5118769;27;20645;-61
2022/07/30 01:02:14;;;;;;;0.73;0.73;;;;;;;;;;5123465;27;20207;-58
2022/07/30 01:05:01;;;;;;;1.23;1.00;;;;;;;;;;5119623;27;20674;-58
2022/07/30 01:07:50;;;;;;;0.77;0.77;;;;;;;;;;5123547;27;20194;-58
2022/07/30 01:10:37;;;;;;;0.87;0.87;;;;;;;;;;5118886;27;20230;-59
2022/07/30 01:13:24;;;;;;;1.03;1.03;;;;;;;;;;5125749;27;20234;-58
2022/07/30 01:16:11;;;;;;;0.80;0.80;;;;;;;;;;5113395;27;20216;-58
2022/07/30 01:22:12;;;;;;;0.70;0.70;;;;;;;;;;5118676;27;20230;-58
2022/07/30 01:25:07;;;;;;;0.70;0.70;;;;;;;;;;5116335;27;20229;-58
2022/07/30 01:28:00;;;;;;;0.90;0.90;;;;;;;;;;5117349;27;20234;-58
2022/07/30 01:30:48;;;;;;;0.70;0.70;;;;;;;;;;5118396;27;20272;-58
2022/07/30 01:33:38;;;;;;;1.00;1.00;;;;;;;;;;5118180;27;20213;-58
2022/07/30 01:36:27;;;;;;;0.77;0.77;;;;;;;;;;5115773;27;20316;-59
2022/07/30 01:39:17;;;;;;;0.73;0.73;;;;;;;;;;5119099;27;20256;-58
2022/07/30 01:42:07;;;;;;;1.00;0.80;;;;;;;;;;5118210;27;20270;-58
2022/07/30 01:44:57;;;;;;;0.90;0.90;;;;;;;;;;5117815;27;20209;-58
2022/07/30 01:47:45;;;;;;;0.77;0.77;;;;;;;;;;5116773;27;20252;-58
2022/07/30 01:50:33;;;;;;;0.70;0.70;;;;;;;;;;5118566;27;20211;-58
2022/07/30 01:53:24;;;;;;;0.80;0.80;;;;;;;;;;5112860;27;20196;-58
2022/07/30 01:56:14;;;;;;;0.83;0.83;;;;;;;;;;5119964;27;20227;-58
2022/07/30 01:59:04;;;;;;;0.70;0.70;;;;;;;;;;5114140;27;20211;-58
2022/07/30 02:01:53;;;;;;;0.60;0.60;;;;;;;;;;5116593;27;20195;-58
2022/07/30 02:04:40;;;;;;;0.83;0.83;;;;;;;;;;5120840;27;20280;-58
2022/07/30 02:07:34;;;;;;;0.80;0.80;;;;;;;;;;5121206;27;20230;-59
2022/07/30 02:10:26;;;;;;;0.80;0.80;;;;;;;;;;5120741;27;20211;-58
2022/07/30 02:13:17;;;;;;;0.93;0.93;;;;;;;;;;5119970;27;20207;-59
2022/07/30 02:16:13;;;;;;;0.63;0.63;;;;;;;;;;5119903;27;20199;-58
2022/07/30 02:19:05;;;;;;;0.60;0.60;;;;;;;;;;5116406;27;20209;-58
2022/07/30 02:21:59;;;;;;;0.77;0.70;;;;;;;;;;5117011;27;20212;-59
2022/07/30 02:24:48;;;;;;;0.77;0.77;;;;;;;;;;5116788;27;20636;-58
2022/07/30 02:27:38;;;;;;;0.77;0.77;;;;;;;;;;5118070;27;20611;-57
2022/07/30 02:30:30;;;;;;;0.77;0.77;;;;;;;;;;5120902;27;20203;-58
2022/07/30 02:33:21;;;;;;;0.60;0.60;;;;;;;;;;5117480;27;20253;-57
2022/07/30 02:36:11;;;;;;;0.80;0.80;;;;;;;;;;5116798;27;20217;-57
2022/07/30 02:38:59;;;;;;;0.77;0.77;;;;;;;;;;5121408;27;20207;-57
2022/07/30 02:41:47;;;;;;;0.70;0.70;;;;;;;;;;5116617;28;20268;-57
2022/07/30 02:44:37;;;;;;;0.90;0.90;;;;;;;;;;5118069;28;20206;-58
2022/07/30 02:47:25;;;;;;;0.83;0.80;;;;;;;;;;5123407;28;20227;-57
2022/07/30 02:50:13;;;;;;;0.60;0.60;;;;;;;;;;5118206;28;20202;-57
2022/07/30 02:53:05;;;;;;;0.70;0.70;;;;;;;;;;5120106;28;20270;-57
2022/07/30 02:55:55;;;;;;;0.80;0.70;;;;;;;;;;5121656;28;20674;-58
2022/07/30 02:58:43;;;;;;;0.90;0.90;;;;;;;;;;5112666;28;20583;-59
2022/07/30 03:01:32;;;;;;;0.90;0.90;;;;;;;;;;5122480;28;20201;-58
2022/07/30 03:04:21;;;;;;;0.80;0.80;;;;;;;;;;5114671;28;20202;-58
2022/07/30 03:07:09;;;;;;;0.80;0.80;;;;;;;;;;5115874;28;20653;-58
2022/07/30 03:09:59;;;;;;;0.83;0.83;;;;;;;;;;5113593;28;20205;-58
2022/07/30 03:12:49;;;;;;;1.00;0.73;;;;;;;;;;5123464;28;20254;-58
2022/07/30 03:15:37;;;;;;;0.87;0.80;;;;;;;;;;5122329;28;20241;-58
2022/07/30 03:18:27;;;;;;;0.80;0.80;;;;;;;;;;5122056;28;20228;-58
2022/07/30 03:21:16;;;;;;;0.83;0.83;;;;;;;;;;5116789;28;20209;-58
2022/07/30 03:24:06;;;;;;;0.67;0.67;;;;;;;;;;5118878;28;20301;-57
2022/07/30 03:26:56;;;;;;;0.60;0.60;;;;;;;;;;5116281;28;20470;-58
2022/07/30 03:29:47;;;;;;;0.77;0.77;;;;;;;;;;5118020;28;20302;-57
2022/07/30 03:32:35;;;;;;;1.00;1.00;;;;;;;;;;5117061;28;20217;-58
2022/07/30 03:35:24;;;;;;;1.03;0.73;;;;;;;;;;5108704;28;20342;-58
2022/07/30 03:38:12;;;;;;;0.60;0.60;;;;;;;;;;5118434;28;20774;-58
2022/07/30 03:40:59;;;;;;;1.00;0.90;;;;;;;;;;5121647;28;20200;-58
2022/07/30 03:43:49;;;;;;;0.73;0.60;;;;;;;;;;5119602;28;20211;-58
2022/07/30 03:46:37;;;;;;;0.70;0.70;;;;;;;;;;5117862;27;20205;-59
2022/07/30 03:49:25;;;;;;;0.90;0.90;;;;;;;;;;5111997;27;20562;-58
2022/07/30 03:52:12;;;;;;;0.70;0.70;;;;;;;;;;5117964;27;20206;-58
2022/07/30 03:54:59;;;;;;;0.70;0.70;;;;;;;;;;5119887;27;20203;-58
2022/07/30 03:57:47;;;;;;;0.70;0.70;;;;;;;;;;5119697;27;20221;-58
2022/07/30 04:00:39;;;;;;;0.60;0.60;;;;;;;;;;5123191;27;20263;-58
2022/07/30 04:03:26;;;;;;;0.80;0.80;;;;;;;;;;5125102;27;20216;-59
2022/07/30 04:06:13;;;;;;;0.50;0.50;;;;;;;;;;5117610;27;20220;-57
2022/07/30 04:09:00;;;;;;;0.50;0.50;;;;;;;;;;5125135;27;20198;-58
2022/07/30 04:11:47;;;;;;;0.70;0.70;;;;;;;;;;5122819;27;20637;-58
2022/07/30 04:14:40;;;;;;;1.00;0.97;;;;;;;;;;5118473;27;20210;-58
2022/07/30 04:17:38;;;;;;;0.50;0.50;;;;;;;;;;5117990;27;20272;-58
2022/07/30 04:20:29;;;;;;;0.60;0.60;;;;;;;;;;5120539;27;20207;-58
2022/07/30 04:23:16;;;;;;;0.50;0.50;;;;;;;;;;5116437;27;20215;-57
2022/07/30 04:26:03;;;;;;;0.60;0.60;;;;;;;;;;5119273;27;20203;-58
2022/07/30 04:28:51;;;;;;;0.73;0.73;;;;;;;;;;5123478;27;20202;-58
2022/07/30 04:31:38;;;;;;;0.70;0.70;;;;;;;;;;5118314;27;20747;-58
2022/07/30 04:34:27;;;;;;;0.80;0.80;;;;;;;;;;5118889;27;20261;-58
2022/07/30 04:37:16;;;;;;;0.93;0.77;;;;;;;;;;5119551;27;20226;-58
2022/07/30 04:40:03;;;;;;;0.83;0.83;;;;;;;;;;5120642;27;20202;-58
2022/07/30 04:42:50;;;;;;;0.40;0.40;;;;;;;;;;5121909;27;20251;-58
2022/07/30 04:45:39;;;;;;;0.60;0.60;;;;;;;;;;5118325;27;20656;-58
2022/07/30 04:48:27;;;;;;;0.60;0.60;;;;;;;;;;5119806;27;20567;-58
2022/07/30 04:51:22;;;;;;;0.60;0.60;;;;;;;;;;5119125;27;20219;-58
2022/07/30 04:54:11;;;;;;;0.60;0.60;;;;;;;;;;5124966;27;20205;-58
2022/07/30 04:56:58;;;;;;;0.60;0.60;;;;;;;;;;5115068;27;20357;-58
2022/07/30 04:59:45;;;;;;;0.50;0.50;;;;;;;;;;5120263;27;20860;-58
2022/07/30 05:02:35;;;;;;;0.63;0.63;;;;;;;;;;5115927;27;20625;-58
2022/07/30 05:05:23;;;;;;;0.90;0.73;;;;;;;;;;5119370;27;20239;-58
2022/07/30 05:08:13;;;;;;;0.60;0.60;;;;;;;;;;5124894;27;20287;-58
2022/07/30 05:11:00;;;;;;;0.63;0.60;;;;;;;;;;5122047;27;20576;-58
2022/07/30 05:13:48;;;;;;;0.70;0.70;;;;;;;;;;5116904;27;20211;-58
2022/07/30 05:16:35;;;;;;;0.83;0.83;;;;;;;;;;5121049;27;20213;-58
2022/07/30 05:19:23;;;;;;;0.87;0.63;;;;;;;;;;5119465;27;20208;-57
2022/07/30 05:22:10;;;;;;;0.50;0.50;;;;;;;;;;5117548;27;20201;-58
2022/07/30 05:24:58;;;;;;;0.60;0.60;;;;;;;;;;5121117;27;20607;-58
2022/07/30 05:27:45;;;;;;;0.60;0.60;;;;;;;;;;5120118;27;20259;-57
2022/07/30 05:30:32;;;;;;;0.87;0.80;;;;;;;;;;5124051;27;20504;-58
2022/07/30 05:33:19;;;;;;;0.57;0.57;;;;;;;;;;5124193;27;20224;-58
2022/07/30 05:36:06;;;;;;;0.70;0.70;;;;;;;;;;5117889;27;20202;-58
2022/07/30 05:38:53;;;;;;;0.80;0.80;;;;;;;;;;5117210;27;20234;-58
2022/07/30 05:41:41;;;;;;;0.70;0.70;;;;;;;;;;5114399;27;20295;-57
2022/07/30 05:44:28;;;;;;;0.50;0.50;;;;;;;;;;5117852;27;20215;-58
2022/07/30 05:47:16;;;;;;;0.70;0.70;;;;;;;;;;5122574;27;20195;-58
2022/07/30 05:50:04;;;;;;;0.85;0.82;;;;;;;;;;5119366;27;20213;-58
2022/07/30 05:52:51;;;;;;;0.52;0.52;;;;;;;;;;5119923;27;20676;-58
2022/07/30 05:55:38;;;;;;;0.65;0.65;;;;;;;;;;5117241;27;20689;-58
2022/07/30 05:58:26;;;;;;;0.55;0.55;;;;;;;;;;5121655;27;20228;-58
2022/07/30 06:01:13;;;;;;;0.60;0.60;;;;;;;;;;5112978;27;20684;-58
2022/07/30 06:04:00;;;;;;;0.70;0.70;;;;;;;;;;5118332;27;20284;-57
2022/07/30 06:06:47;;;;;;;0.60;0.60;;;;;;;;;;5112758;27;20221;-59
2022/07/30 06:09:34;;;;;;;0.90;0.55;;;;;;;;;;5123219;27;20198;-58
2022/07/30 06:12:21;;;;;;;0.60;0.60;;;;;;;;;;5112623;27;20209;-59
2022/07/30 06:15:10;;;;;;;0.88;0.80;;;;;;;;;;5117831;27;20208;-58
2022/07/30 06:17:57;;;;;;;0.60;0.60;;;;;;;;;;5121531;27;20312;-58
2022/07/30 06:20:45;;;;;;;0.60;0.60;;;;;;;;;;5117808;27;20571;-58
2022/07/30 06:23:32;;;;;;;0.52;0.52;;;;;;;;;;5117406;27;20209;-58
2022/07/30 06:26:19;;;;;;;0.45;0.45;;;;;;;;;;5118766;27;20266;-59
2022/07/30 06:29:07;;;;;;;0.50;0.50;;;;;;;;;;5114891;27;20194;-58
2022/07/30 06:31:56;;;;;;;0.50;0.50;;;;;;;;;;5118896;27;20625;-58
2022/07/30 06:34:43;;;;;;;0.60;0.60;;;;;;;;;;5118083;27;20210;-59
2022/07/30 06:37:29;;;;;;;0.50;0.50;;;;;;;;;;5118656;27;20225;-58
2022/07/30 06:40:17;;;;;;;0.60;0.60;;;;;;;;;;5116702;28;20231;-58
2022/07/30 06:43:03;;;;;;;0.60;0.60;;;;;;;;;;5121949;28;20204;-58
2022/07/30 06:45:50;;;;;;;0.70;0.70;;;;;;;;;;5121592;28;20225;-58
2022/07/30 06:48:41;;;;;;;1.05;0.60;;;;;;;;;;5119693;28;20206;-58
2022/07/30 06:51:28;;;;;;;0.85;0.60;;;;;;;;;;5122263;28;20672;-56
2022/07/30 06:54:14;;;;;;;0.60;0.52;;;;;;;;;;5117497;28;20209;-58
2022/07/30 06:57:01;;;;;;;0.60;0.60;;;;;;;;;;5118386;28;20606;-57
2022/07/30 06:59:48;;;;;;;0.50;0.50;;;;;;;;;;5117211;28;20600;-57
2022/07/30 07:02:35;;;;;;;0.55;0.50;;;;;;;;;;5120460;28;20220;-56
2022/07/30 07:05:27;;;;;;;0.50;0.50;;;;;;;;;;5117104;28;20233;-56
2022/07/30 07:08:14;;;;;;;0.50;0.50;;;;;;;;;;5114119;28;20216;-56
2022/07/30 07:11:01;;;;;;;1.35;0.70;;;;;;;;;;5123213;28;20664;-56
2022/07/30 07:13:48;;;;;;;0.40;0.40;;;;;;;;;;5115573;28;20212;-57
2022/07/30 07:16:35;;;;;;;0.38;0.38;;;;;;;;;;5117183;28;20255;-56
2022/07/30 07:19:23;;;;;;;0.45;0.45;;;;;;;;;;5123931;27;20247;-56
2022/07/30 07:22:11;;;;;;;0.50;0.50;;;;;;;;;;5122216;27;20205;-56
2022/07/30 07:24:58;;;;;;;0.47;0.47;;;;;;;;;;5119449;27;20244;-57
2022/07/30 07:27:45;;;;;;;0.47;0.47;;;;;;;;;;5119725;27;20209;-57
2022/07/30 07:30:32;;;;;;;0.40;0.40;;;;;;;;;;5119677;27;20726;-57
2022/07/30 07:33:19;;;;;;;0.68;0.68;;;;;;;;;;5118754;27;20231;-56
2022/07/30 07:36:06;;;;;;;0.52;0.52;;;;;;;;;;5122856;27;20227;-58
2022/07/30 07:38:54;;;;;;;0.40;0.40;;;;;;;;;;5114367;27;20310;-58
2022/07/30 07:41:41;;;;;;;0.47;0.47;;;;;;;;;;5120658;27;20206;-58
2022/07/30 07:44:28;;;;;;;0.40;0.40;;;;;;;;;;5121817;27;20209;-58
2022/07/30 07:47:15;;;;;;;0.30;0.30;;;;;;;;;;5119670;27;20204;-58
2022/07/30 07:50:02;;;;;;;0.30;0.30;;;;;;;;;;5118039;27;20197;-59
2022/07/30 07:52:49;;;;;;;0.30;0.30;;;;;;;;;;5123333;27;20196;-59
2022/07/30 07:55:38;;;;;;;0.50;0.50;;;;;;;;;;5120326;27;20624;-60
2022/07/30 07:58:26;;;;;;;0.30;0.30;;;;;;;;;;5123174;27;20228;-59
2022/07/30 08:01:13;;;;;;;0.47;0.47;;;;;;;;;;5122606;27;20355;-58
2022/07/30 08:04:00;;;;;;;0.47;0.47;;;;;;;;;;5116272;27;20209;-59
2022/07/30 08:06:47;;;;;;;0.40;0.40;;;;;;;;;;5117915;27;20235;-59
2022/07/30 08:09:34;;;;;;;0.40;0.40;;;;;;;;;;5117109;27;20224;-59
2022/07/30 08:12:22;;;;;;;0.38;0.38;;;;;;;;;;5115745;27;20212;-59
2022/07/30 08:15:10;;;;;;;0.30;0.30;;;;;;;;;;5117871;27;20209;-59
2022/07/30 08:17:57;;;;;;;0.30;0.30;;;;;;;;;;5116158;27;20224;-59
2022/07/30 08:20:44;;;;;;;0.43;0.38;;;;;;;;;;5113006;27;20683;-59
2022/07/30 08:23:31;;;;;;;0.40;0.40;;;;;;;;;;5117370;27;20205;-59
2022/07/30 08:26:18;;;;;;;0.28;0.28;;;;;;;;;;5123232;27;20250;-59
2022/07/30 08:29:06;;;;;;;0.30;0.30;;;;;;;;;;5123613;27;20257;-59
2022/07/30 08:31:53;;;;;;;0.63;0.63;;;;;;;;;;5118259;27;20210;-58
2022/07/30 08:34:40;;;;;;;0.40;0.38;;;;;;;;;;5124243;27;20206;-59
2022/07/30 08:37:28;;;;;;;0.50;0.50;;;;;;;;;;5124375;27;20673;-57
2022/07/30 08:40:18;;;;;;;0.50;0.50;;;;;;;;;;5119801;27;20210;-57
2022/07/30 08:43:07;;;;;;;0.40;0.40;;;;;;;;;;5119333;27;20209;-58
2022/07/30 08:45:56;;;;;;;0.70;0.70;;;;;;;;;;5115737;27;20201;-57
2022/07/30 08:48:44;;;;;;;0.40;0.40;;;;;;;;;;5124260;27;20205;-57
2022/07/30 08:51:31;;;;;;;0.40;0.40;;;;;;;;;;5117030;27;20200;-58
2022/07/30 08:54:18;;;;;;;0.38;0.38;;;;;;;;;;5125802;27;20280;-57
2022/07/30 08:57:06;;;;;;;0.40;0.40;;;;;;;;;;5118368;27;20208;-57
2022/07/30 08:59:53;;;;;;;0.75;0.52;;;;;;;;;;5120284;27;20300;-56
2022/07/30 09:02:41;;;;;;;0.63;0.40;;;;;;;;;;5121005;27;20625;-57
2022/07/30 09:05:28;;;;;;;0.40;0.40;;;;;;;;;;5121090;27;20224;-57
2022/07/30 09:08:15;;;;;;;1.20;0.60;;;;;;;;;;5118419;27;20204;-56
2022/07/30 09:11:02;;;;;;;0.50;0.50;;;;;;;;;;5119538;27;20566;-57
2022/07/30 09:13:50;;;;;;;0.43;0.43;;;;;;;;;;5120036;27;20213;-56
2022/07/30 09:16:38;;;;;;;0.35;0.35;;;;;;;;;;5122154;27;20201;-57
2022/07/30 09:19:26;;;;;;;0.40;0.40;;;;;;;;;;5120185;27;20229;-58
2022/07/30 09:22:13;;;;;;;0.50;0.47;;;;;;;;;;5123252;27;20205;-57
2022/07/30 09:25:00;;;;;;;0.50;0.50;;;;;;;;;;5118582;27;20236;-57
2022/07/30 09:27:50;;;;;;;0.40;0.40;;;;;;;;;;5123262;27;20214;-57
2022/07/30 09:30:48;;;;;;;0.35;0.35;;;;;;;;;;5121620;27;20200;-56
2022/07/30 09:33:37;;;;;;;0.60;0.60;;;;;;;;;;5114341;27;20279;-59
2022/07/30 09:36:32;;;;;;;0.45;0.45;;;;;;;;;;5120855;27;20201;-59
2022/07/30 09:39:28;;;;;;;0.50;0.50;;;;;;;;;;5117421;27;20222;-59
2022/07/30 09:42:20;;;;;;;0.40;0.40;;;;;;;;;;5120406;27;20213;-58
2022/07/30 09:45:08;;;;;;;0.30;0.30;;;;;;;;;;5117455;27;20308;-58
2022/07/30 09:47:55;;;;;;;0.40;0.40;;;;;;;;;;5113095;27;20206;-59
2022/07/30 09:50:48;;;;;;;1.05;0.70;;;;;;;;;;5113573;27;20198;-58
2022/07/30 09:53:36;;;;;;;0.35;0.35;;;;;;;;;;5111775;27;20209;-58
2022/07/30 09:56:24;;;;;;;0.52;0.52;;;;;;;;;;5117583;27;20574;-59
2022/07/30 09:59:26;;;;;;;0.63;0.50;;;;;;;;;;5118551;27;20257;-58
2022/07/30 10:02:13;;;;;;;0.38;0.38;;;;;;;;;;5119993;27;20653;-58
2022/07/30 10:05:11;;;;;;;0.63;0.63;;;;;;;;;;5117169;27;20237;-59
2022/07/30 10:08:00;;;;;;;0.40;0.40;;;;;;;;;;5115834;27;20198;-58
2022/07/30 10:10:48;;;;;;;0.40;0.40;;;;;;;;;;5116590;27;20656;-58
2022/07/30 10:13:36;;;;;;;0.50;0.50;;;;;;;;;;5119754;27;20220;-58
2022/07/30 10:16:26;;;;;;;0.30;0.30;;;;;;;;;;5116153;27;20202;-59
2022/07/30 10:19:13;;;;;;;0.50;0.50;;;;;;;;;;5119973;27;20700;-58
2022/07/30 10:22:01;;;;;;;0.30;0.30;;;;;;;;;;5120923;27;20210;-58
2022/07/30 10:24:48;;;;;;;0.40;0.40;;;;;;;;;;5125282;27;20282;-59
2022/07/30 10:27:38;;;;;;;0.40;0.40;;;;;;;;;;5115152;27;20231;-58
2022/07/30 10:30:26;;;;;;;0.50;0.50;;;;;;;;;;5117500;27;20281;-59
2022/07/30 10:33:13;;;;;;;0.60;0.60;;;;;;;;;;5116201;28;20590;-58
2022/07/30 10:36:00;;;;;;;0.50;0.50;;;;;;;;;;5117178;27;20201;-58
2022/07/30 10:38:47;;;;;;;0.50;0.50;;;;;;;;;;5117419;27;20229;-59
2022/07/30 10:41:47;;;;;;;0.50;0.50;;;;;;;;;;5114818;27;20213;-58
2022/07/30 10:44:50;;;;;;;0.40;0.40;;;;;;;;;;5120730;28;20204;-58
2022/07/30 10:47:39;;;;;;;0.40;0.40;;;;;;;;;;5116838;28;20265;-58
2022/07/30 10:50:27;;;;;;;0.50;0.50;;;;;;;;;;5115101;27;20221;-59
2022/07/30 10:53:32;;;;;;;0.47;0.47;;;;;;;;;;5114484;28;20698;-58
2022/07/30 10:56:21;;;;;;;0.35;0.35;;;;;;;;;;5115974;27;20210;-58
2022/07/30 10:59:11;;;;;;;0.50;0.50;;;;;;;;;;5114750;27;20221;-58
2022/07/30 11:02:09;;;;;;;0.40;0.40;;;;;;;;;;5120956;27;20205;-58
2022/07/30 11:05:24;;;;;;;0.47;0.47;;;;;;;;;;5118684;27;20648;-59
2022/07/30 11:08:33;;;;;;;0.40;0.40;;;;;;;;;;5117077;27;20198;-59
2022/07/30 11:11:44;;;;;;;0.57;0.55;;;;;;;;;;5123215;27;20212;-58
2022/07/30 11:14:58;;;;;;;0.43;0.43;;;;;;;;;;5121384;27;20216;-58
2022/07/30 11:18:10;;;;;;;0.60;0.60;;;;;;;;;;5120008;27;20214;-58
2022/07/30 11:21:19;;;;;;;0.40;0.40;;;;;;;;;;5117100;27;20225;-59
2022/07/30 11:24:07;;;;;;;0.45;0.45;;;;;;;;;;5115434;27;20709;-58
2022/07/30 11:26:54;;;;;;;0.55;0.55;;;;;;;;;;5127760;27;20225;-58
2022/07/30 11:29:41;;;;;;;0.32;0.32;;;;;;;;;;5121830;27;20201;-58
2022/07/30 11:32:30;;;;;;;0.32;0.32;;;;;;;;;;5113015;27;20283;-59
2022/07/30 11:35:21;;;;;;;0.30;0.30;;;;;;;;;;5122518;27;20216;-59
2022/07/30 11:38:11;;;;;;;0.60;0.60;;;;;;;;;;5124582;27;20209;-59
2022/07/30 11:41:11;;;;;;;0.60;0.60;;;;;;;;;;5118485;27;20222;-58
2022/07/30 11:44:27;;;;;;;0.30;0.30;;;;;;;;;;5124500;27;20733;-59
2022/07/30 11:47:14;;;;;;;0.30;0.30;;;;;;;;;;5118613;27;20664;-58
2022/07/30 11:50:01;;;;;;;0.50;0.50;;;;;;;;;;5120284;27;20277;-58
2022/07/30 11:52:51;;;;;;;0.60;0.60;;;;;;;;;;5120956;27;20222;-58
2022/07/30 11:55:41;;;;;;;0.47;0.47;;;;;;;;;;5119163;27;20256;-59
2022/07/30 11:58:30;;;;;;;0.40;0.40;;;;;;;;;;5119282;27;20319;-59
2022/07/30 12:01:18;;;;;;;0.50;0.50;;;;;;;;;;5116230;27;20331;-58
2022/07/30 12:04:07;;;;;;;0.47;0.47;;;;;;;;;;5119120;27;20227;-59
2022/07/30 12:06:54;;;;;;;0.60;0.60;;;;;;;;;;5114998;27;20222;-59
2022/07/30 12:09:43;;;;;;;0.55;0.55;;;;;;;;;;5121407;27;20209;-58
2022/07/30 12:12:30;;;;;;;0.43;0.43;;;;;;;;;;5115679;27;20206;-59
2022/07/30 12:15:31;;;;;;;0.50;0.50;;;;;;;;;;5118312;27;20489;-59
2022/07/30 12:18:25;;;;;;;0.40;0.40;;;;;;;;;;5115113;27;20201;-59
2022/07/30 12:21:14;;;;;;;0.45;0.45;;;;;;;;;;5120925;27;20703;-59
2022/07/30 12:24:06;;;;;;;0.40;0.40;;;;;;;;;;5120214;27;20260;-59
2022/07/30 12:27:04;;;;;;;0.40;0.40;;;;;;;;;;5123105;27;20201;-59
2022/07/30 12:29:51;;;;;;;0.50;0.50;;;;;;;;;;5116087;27;20201;-59
2022/07/30 12:32:38;;;;;;;0.38;0.38;;;;;;;;;;5119399;27;20287;-59
2022/07/30 12:35:43;;;;;;;0.50;0.50;;;;;;;;;;5118282;27;20741;-59
2022/07/30 12:38:44;;;;;;;0.50;0.50;;;;;;;;;;5124193;27;20208;-59
2022/07/30 12:41:42;;;;;;;0.40;0.40;;;;;;;;;;5118673;27;20213;-58
2022/07/30 12:44:39;;;;;;;0.32;0.32;;;;;;;;;;5120028;27;20209;-59
2022/07/30 12:47:27;;;;;;;0.30;0.30;;;;;;;;;;5117205;27;20202;-59
2022/07/30 12:50:17;;;;;;;0.40;0.40;;;;;;;;;;5119137;27;20282;-58
2022/07/30 12:53:04;;;;;;;0.40;0.40;;;;;;;;;;5119100;27;20728;-58
2022/07/30 12:55:51;;;;;;;0.50;0.50;;;;;;;;;;5118524;27;20201;-58
2022/07/30 12:58:38;;;;;;;0.50;0.50;;;;;;;;;;5119586;27;20213;-59
2022/07/30 13:01:42;;;;;;;0.50;0.50;;;;;;;;;;5123172;27;20275;-59
2022/07/30 13:04:30;;;;;;;0.52;0.52;;;;;;;;;;5120735;27;20677;-59
2022/07/30 13:07:17;;;;;;;0.50;0.50;;;;;;;;;;5113884;27;20213;-59
2022/07/30 13:10:08;;;;;;;0.50;0.50;;;;;;;;;;5115771;27;20206;-59
2022/07/30 13:12:57;;;;;;;0.40;0.40;;;;;;;;;;5112222;27;20201;-59
2022/07/30 13:15:43;;;;;;;0.60;0.60;;;;;;;;;;5112039;27;20286;-59
2022/07/30 13:18:33;;;;;;;0.45;0.45;;;;;;;;;;5116245;27;20243;-59
2022/07/30 13:21:20;;;;;;;0.68;0.68;;;;;;;;;;5114413;27;20226;-59
2022/07/30 13:24:08;;;;;;;0.57;0.57;;;;;;;;;;5119484;27;20272;-59
2022/07/30 13:26:55;;;;;;;0.50;0.50;;;;;;;;;;5123671;27;20210;-59
2022/07/30 13:29:42;;;;;;;0.50;0.50;;;;;;;;;;5117260;27;20229;-59
2022/07/30 13:32:30;;;;;;;0.77;0.77;;;;;;;;;;5117826;27;20653;-59
2022/07/30 13:35:18;;;;;;;0.40;0.40;;;;;;;;;;5119252;27;20236;-59
2022/07/30 13:38:06;;;;;;;0.43;0.43;;;;;;;;;;5117429;27;20209;-59
2022/07/30 13:40:54;;;;;;;0.47;0.47;;;;;;;;;;5118046;27;20213;-59
2022/07/30 13:43:41;;;;;;;0.57;0.57;;;;;;;;;;5122470;27;20660;-60
2022/07/30 13:46:28;;;;;;;0.50;0.50;;;;;;;;;;5121543;27;20208;-59
2022/07/30 13:49:15;;;;;;;0.50;0.50;;;;;;;;;;5121558;27;20608;-59
2022/07/30 13:52:03;;;;;;;0.40;0.40;;;;;;;;;;5119644;27;20197;-59
2022/07/30 13:54:52;;;;;;;0.40;0.40;;;;;;;;;;5119158;27;20198;-59
2022/07/30 13:57:39;;;;;;;0.47;0.47;;;;;;;;;;5120559;27;20206;-59
2022/07/30 14:00:31;;;;;;;0.60;0.60;;;;;;;;;;5116491;27;20241;-60
2022/07/30 14:03:18;;;;;;;0.50;0.50;;;;;;;;;;5114782;27;20204;-60
2022/07/30 14:06:05;;;;;;;0.50;0.50;;;;;;;;;;5115949;27;20275;-59
2022/07/30 14:08:53;;;;;;;0.60;0.60;;;;;;;;;;5115670;27;20209;-58
2022/07/30 14:11:40;;;;;;;0.47;0.47;;;;;;;;;;5114779;27;20489;-59
2022/07/30 14:14:27;;;;;;;0.60;0.60;;;;;;;;;;5113046;28;20214;-59
2022/07/30 14:17:14;;;;;;;0.50;0.50;;;;;;;;;;5113121;27;20657;-59
2022/07/30 14:20:01;;;;;;;0.47;0.47;;;;;;;;;;5116459;27;20566;-59
2022/07/30 14:22:48;;;;;;;0.70;0.55;;;;;;;;;;5115483;27;20216;-60
2022/07/30 14:25:37;;;;;;;0.40;0.40;;;;;;;;;;5114755;27;20233;-59
2022/07/30 14:28:24;;;;;;;0.52;0.52;;;;;;;;;;5113853;27;20202;-60
2022/07/30 14:31:11;;;;;;;0.52;0.52;;;;;;;;;;5120443;27;20194;-59
2022/07/30 14:33:58;;;;;;;0.50;0.50;;;;;;;;;;5114061;27;20200;-60
2022/07/30 14:36:45;;;;;;;0.55;0.55;;;;;;;;;;5118074;27;20221;-59
2022/07/30 14:39:32;;;;;;;0.55;0.55;;;;;;;;;;5116939;27;20201;-59
2022/07/30 14:42:20;;;;;;;0.40;0.40;;;;;;;;;;5123614;27;20213;-59
2022/07/30 14:45:09;;;;;;;0.60;0.60;;;;;;;;;;5121702;28;20668;-60
2022/07/30 14:47:56;;;;;;;0.50;0.50;;;;;;;;;;5119187;28;20214;-59
2022/07/30 14:50:43;;;;;;;0.50;0.50;;;;;;;;;;5115406;28;20345;-59
2022/07/30 14:53:30;;;;;;;0.60;0.60;;;;;;;;;;5106829;28;20201;-59
2022/07/30 14:56:18;;;;;;;0.40;0.40;;;;;;;;;;5111197;28;20205;-59
2022/07/30 14:59:06;;;;;;;0.40;0.40;;;;;;;;;;5112703;28;20202;-59
2022/07/30 15:01:53;;;;;;;0.30;0.30;;;;;;;;;;5110236;28;20225;-58
2022/07/30 15:04:40;;;;;;;0.57;0.50;;;;;;;;;;5111917;28;20198;-59
2022/07/30 15:07:28;;;;;;;0.73;0.60;;;;;;;;;;5119854;28;20329;-59
2022/07/30 15:10:15;;;;;;;0.50;0.50;;;;;;;;;;5113353;28;20228;-59
2022/07/30 15:13:02;;;;;;;0.40;0.40;;;;;;;;;;5111814;28;20266;-59
2022/07/30 15:15:50;;;;;;;0.50;0.50;;;;;;;;;;5117427;28;20240;-59
2022/07/30 15:18:37;;;;;;;0.50;0.50;;;;;;;;;;5120055;28;20213;-58
2022/07/30 15:21:24;;;;;;;0.40;0.40;;;;;;;;;;5115523;28;20655;-59
2022/07/30 15:24:11;;;;;;;0.47;0.47;;;;;;;;;;5112664;28;20233;-59
2022/07/30 15:26:58;;;;;;;0.50;0.50;;;;;;;;;;5114819;28;20231;-59
2022/07/30 15:29:45;;;;;;;0.50;0.50;;;;;;;;;;5115011;27;20206;-59
2022/07/30 15:32:34;;;;;;;0.50;0.50;;;;;;;;;;5119498;28;20213;-59
2022/07/30 15:35:21;;;;;;;0.50;0.50;;;;;;;;;;5118107;28;20221;-59
2022/07/30 15:38:08;;;;;;;0.40;0.40;;;;;;;;;;5116633;28;20210;-58
2022/07/30 15:40:55;;;;;;;0.50;0.50;;;;;;;;;;5121491;27;20248;-59
2022/07/30 15:43:42;;;;;;;0.65;0.65;;;;;;;;;;5124339;27;20201;-59
2022/07/30 15:46:29;;;;;;;0.60;0.60;;;;;;;;;;5116008;27;20248;-60
2022/07/30 15:49:18;;;;;;;0.60;0.60;;;;;;;;;;5118549;27;20662;-58
2022/07/30 15:52:07;;;;;;;0.88;0.70;;;;;;;;;;5118297;27;20205;-59
2022/07/30 15:54:54;;;;;;;0.50;0.50;;;;;;;;;;5119553;27;20201;-59
2022/07/30 15:57:42;;;;;;;0.63;0.40;;;;;;;;;;5121739;27;20258;-59
2022/07/30 16:00:29;;;;;;;0.63;0.63;;;;;;;;;;5120973;27;20221;-60
2022/07/30 16:03:16;;;;;;;0.43;0.43;;;;;;;;;;5122506;27;20212;-59
2022/07/30 16:06:04;;;;;;;0.60;0.60;;;;;;;;;;5118685;27;20220;-59
2022/07/30 16:08:51;;;;;;;0.50;0.50;;;;;;;;;;5126050;27;20572;-59
2022/07/30 16:11:40;;;;;;;0.40;0.40;;;;;;;;;;5123374;27;20228;-58
2022/07/30 16:14:27;;;;;;;0.50;0.50;;;;;;;;;;5122686;27;20209;-59
2022/07/30 16:17:15;;;;;;;0.50;0.50;;;;;;;;;;5119398;27;20208;-59
2022/07/30 16:20:02;;;;;;;0.50;0.50;;;;;;;;;;5119437;27;20205;-59
2022/07/30 16:22:50;;;;;;;0.70;0.68;;;;;;;;;;5121757;27;20610;-59
2022/07/30 16:25:37;;;;;;;0.75;0.73;;;;;;;;;;5116247;27;20315;-59
2022/07/30 16:28:24;;;;;;;0.60;0.60;;;;;;;;;;5111447;27;20255;-59
2022/07/30 16:31:11;;;;;;;0.70;0.70;;;;;;;;;;5115632;27;20660;-58
2022/07/30 16:33:58;;;;;;;0.73;0.73;;;;;;;;;;5116787;27;20210;-58
2022/07/30 16:36:45;;;;;;;0.60;0.60;;;;;;;;;;5117105;27;20212;-58
2022/07/30 16:39:33;;;;;;;0.40;0.40;;;;;;;;;;5118333;27;20665;-59
2022/07/30 16:42:20;;;;;;;0.60;0.60;;;;;;;;;;5115351;27;20230;-59
2022/07/30 16:45:09;;;;;;;0.82;0.50;;;;;;;;;;5120774;27;20730;-58
2022/07/30 16:47:55;;;;;;;0.68;0.50;;;;;;;;;;5120152;27;20209;-58
2022/07/30 16:50:43;;;;;;;1.00;0.60;;;;;;;;;;5120101;27;20206;-59
2022/07/30 16:53:30;;;;;;;0.80;0.80;;;;;;;;;;5120875;27;20199;-59
2022/07/30 16:56:19;;;;;;;0.55;0.55;;;;;;;;;;5124046;27;20211;-59